createdAt,value
2023-05-05T00:00:15.289Z,100191.20
2023-05-05T00:03:03.900Z,100185.85
2023-05-05T00:05:32.660Z,100180.83
2023-05-05T00:08:01.083Z,100173.52
2023-05-05T00:10:29.580Z,100172.95
2023-05-05T00:12:59.119Z,100171.98
2023-05-05T00:15:27.744Z,100171.62
2023-05-05T00:17:56.404Z,100171.09
2023-05-05T00:20:24.837Z,100172.74
2023-05-05T00:22:53.329Z,100173.19
2023-05-05T00:25:21.851Z,100168.14
2023-05-05T00:27:50.344Z,100161.85
2023-05-05T00:30:19.502Z,100166.33
2023-05-05T00:32:48.920Z,100165.27
2023-05-05T00:35:17.972Z,100164.58
2023-05-05T00:37:46.980Z,100160.47
2023-05-05T00:40:17.722Z,100157.17
2023-05-05T00:42:47.097Z,100153.70
2023-05-05T00:45:16.789Z,100156.08
2023-05-05T00:47:47.955Z,100157.09
2023-05-05T00:50:23.362Z,100158.98
2023-05-05T00:52:53.035Z,100160.05
2023-05-05T00:55:22.094Z,100158.45
2023-05-05T00:57:50.890Z,100156.80
2023-05-05T01:00:19.429Z,100159.19
2023-05-05T01:02:48.154Z,100154.98
2023-05-05T01:05:17.261Z,100155.14
2023-05-05T01:07:55.520Z,100157.11
2023-05-05T01:10:31.372Z,100163.92
2023-05-05T01:13:12.972Z,100164.23
2023-05-05T01:15:48.019Z,100163.06
2023-05-05T01:18:27.006Z,100168.28
2023-05-05T01:21:02.592Z,100170.83
2023-05-05T01:24:02.468Z,100174.21
2023-05-05T01:26:51.912Z,100169.27
2023-05-05T01:29:47.167Z,100169.69
2023-05-05T01:32:20.618Z,100171.51
2023-05-05T01:34:53.536Z,100170.60
2023-05-05T01:37:25.091Z,100172.79
2023-05-05T01:39:58.533Z,100175.48
2023-05-05T01:42:29.706Z,100173.45
2023-05-05T01:45:00.213Z,100172.52
2023-05-05T01:47:30.125Z,100169.02
2023-05-05T01:49:59.608Z,100168.95
2023-05-05T01:52:29.646Z,100165.38
2023-05-05T01:54:59.898Z,100160.42
2023-05-05T01:57:32.518Z,100161.59
2023-05-05T02:00:02.997Z,100163.86
2023-05-05T02:02:44.949Z,100160.80
2023-05-05T02:05:14.375Z,100162.83
2023-05-05T02:07:45.226Z,100162.39
2023-05-05T02:10:14.950Z,100161.58
2023-05-05T02:12:44.927Z,100161.66
2023-05-05T02:15:14.031Z,100155.63
2023-05-05T02:17:43.307Z,100157.42
2023-05-05T02:20:14.459Z,100152.94
2023-05-05T02:22:43.450Z,100154.41
2023-05-05T02:25:12.201Z,100155.17
2023-05-05T02:27:43.597Z,100153.55
2023-05-05T02:30:15.726Z,100151.90
2023-05-05T02:32:55.114Z,100149.95
2023-05-05T02:35:32.749Z,100148.51
2023-05-05T02:38:04.915Z,100149.17
2023-05-05T02:40:41.897Z,100150.34
2023-05-05T02:43:15.297Z,100145.45
2023-05-05T02:45:43.912Z,100144.20
2023-05-05T02:48:12.646Z,100141.99
2023-05-05T02:50:41.435Z,100140.61
2023-05-05T02:53:26.248Z,100140.92
2023-05-05T02:56:01.883Z,100141.63
2023-05-05T02:58:42.365Z,100138.23
2023-05-05T03:01:23.608Z,100131.79
2023-05-05T03:04:04.377Z,100133.73
2023-05-05T03:06:40.264Z,100132.93
2023-05-05T03:09:13.756Z,100134.11
2023-05-05T03:11:47.800Z,100139.69
2023-05-05T03:14:19.308Z,100136.84
2023-05-05T03:16:49.940Z,100138.39
2023-05-05T03:19:19.919Z,100139.55
2023-05-05T03:21:50.537Z,100134.67
2023-05-05T03:24:20.392Z,100141.90
2023-05-05T03:27:00.866Z,100139.71
2023-05-05T03:29:33.018Z,100139.02
2023-05-05T03:32:01.782Z,100140.78
2023-05-05T03:34:30.938Z,100138.06
2023-05-05T03:36:59.925Z,100138.36
2023-05-05T03:39:28.473Z,100145.61
2023-05-05T03:41:57.547Z,100149.23
2023-05-05T03:44:26.799Z,100148.21
2023-05-05T03:46:55.389Z,100148.91
2023-05-05T03:49:23.964Z,100152.97
2023-05-05T03:51:53.635Z,100148.02
2023-05-05T03:54:22.098Z,100147.98
2023-05-05T03:56:50.684Z,100150.26
2023-05-05T03:59:19.244Z,100153.36
2023-05-05T04:01:49.203Z,100151.52
2023-05-05T04:04:18.445Z,100154.52
2023-05-05T04:06:47.352Z,100158.77
2023-05-05T04:09:15.859Z,100161.41
2023-05-05T04:11:44.897Z,100155.41
2023-05-05T04:14:13.555Z,100156.05
2023-05-05T04:16:42.079Z,100157.39
2023-05-05T04:19:12.437Z,100160.80
2023-05-05T04:21:41.460Z,100166.55
2023-05-05T04:24:10.680Z,100166.17
2023-05-05T04:26:39.249Z,100165.89
2023-05-05T04:29:08.857Z,100169.06
2023-05-05T04:31:37.493Z,100171.67
2023-05-05T04:34:06.529Z,100174.77
2023-05-05T04:36:35.312Z,100179.33
2023-05-05T04:39:06.148Z,100182.19
2023-05-05T04:41:34.849Z,100181.08
2023-05-05T04:44:03.816Z,100186.89
2023-05-05T04:46:34.169Z,100190.86
2023-05-05T04:49:04.431Z,100188.14
2023-05-05T04:51:33.365Z,100192.19
2023-05-05T04:54:01.900Z,100193.07
2023-05-05T04:56:31.913Z,100189.85
2023-05-05T04:59:00.362Z,100188.38
2023-05-05T05:01:29.655Z,100191.38
2023-05-05T05:03:58.321Z,100193.61
2023-05-05T05:06:28.675Z,100192.84
2023-05-05T05:08:57.751Z,100195.20
2023-05-05T05:11:26.602Z,100196.55
2023-05-05T05:13:55.144Z,100193.20
2023-05-05T05:16:25.120Z,100191.27
2023-05-05T05:18:53.720Z,100191.70
2023-05-05T05:21:22.548Z,100192.60
2023-05-05T05:23:51.434Z,100192.29
2023-05-05T05:26:20.052Z,100196.77
2023-05-05T05:28:48.845Z,100195.39
2023-05-05T05:31:17.974Z,100195.52
2023-05-05T05:33:46.681Z,100190.13
2023-05-05T05:36:15.715Z,100193.05
2023-05-05T05:38:44.804Z,100189.41
2023-05-05T05:47:49.018Z,100191.73
2023-05-05T05:50:18.679Z,100189.66
2023-05-05T05:52:47.192Z,100198.41
2023-05-05T05:55:16.052Z,100197.03
2023-05-05T05:57:44.932Z,100195.06
2023-05-05T06:00:16.115Z,100196.48
2023-05-05T06:02:46.197Z,100194.59
2023-05-05T06:05:17.613Z,100195.56
2023-05-05T06:07:46.525Z,100192.09
2023-05-05T06:10:27.298Z,100189.02
2023-05-05T06:13:00.798Z,100189.27
2023-05-05T06:15:29.576Z,100189.83
2023-05-05T06:17:58.801Z,100190.14
2023-05-05T06:20:27.976Z,100185.92
2023-05-05T06:22:56.462Z,100187.65
2023-05-05T06:25:25.686Z,100187.73
2023-05-05T06:27:54.300Z,100192.20
2023-05-05T06:30:22.800Z,100192.88
2023-05-05T06:32:51.329Z,100197.63
2023-05-05T06:35:19.867Z,100192.84
2023-05-05T06:37:48.440Z,100192.36
2023-05-05T06:40:17.230Z,100195.73
2023-05-05T06:42:45.643Z,100194.66
2023-05-05T06:45:18.269Z,100195.33
2023-05-05T06:47:46.789Z,100196.45
2023-05-05T06:50:15.446Z,100196.73
2023-05-05T06:52:43.923Z,100196.30
2023-05-05T06:55:12.313Z,100195.88
2023-05-05T06:57:40.866Z,100195.78
2023-05-05T07:00:11.679Z,100195.86
2023-05-05T07:02:40.276Z,100197.40
2023-05-05T07:05:09.278Z,100195.09
2023-05-05T07:07:38.462Z,100192.70
2023-05-05T07:10:09.579Z,100192.38
2023-05-05T07:12:38.259Z,100192.12
2023-05-05T07:15:23.503Z,100191.34
2023-05-05T07:17:55.877Z,100193.05
2023-05-05T07:20:24.743Z,100185.40
2023-05-05T07:22:53.534Z,100184.98
2023-05-05T07:25:22.403Z,100183.45
2023-05-05T07:27:51.037Z,100183.67
2023-05-05T07:30:20.381Z,100176.50
2023-05-05T07:32:49.310Z,100173.58
2023-05-05T07:35:18.141Z,100173.52
2023-05-05T07:37:46.838Z,100170.48
2023-05-05T07:40:15.392Z,100169.92
2023-05-05T07:42:43.839Z,100168.66
2023-05-05T07:45:12.259Z,100170.98
2023-05-05T07:47:40.770Z,100170.08
2023-05-05T07:50:10.478Z,100170.59
2023-05-05T07:55:10.748Z,100170.08
2023-05-05T07:57:39.356Z,100171.85
2023-05-05T08:00:12.702Z,100165.97
2023-05-05T08:02:41.743Z,100170.14
2023-05-05T08:05:11.406Z,100171.83
2023-05-05T08:07:40.637Z,100172.56
2023-05-05T08:10:11.356Z,100171.02
2023-05-05T08:12:40.075Z,100170.02
2023-05-05T08:15:10.251Z,100168.85
2023-05-05T08:17:46.507Z,100163.57
2023-05-05T08:20:15.465Z,100160.02
2023-05-05T08:22:44.391Z,100158.41
2023-05-05T08:25:13.968Z,100154.82
2023-05-05T08:27:43.074Z,100154.50
2023-05-05T08:30:12.654Z,100158.25
2023-05-05T08:32:41.289Z,100161.00
2023-05-05T08:35:11.088Z,100162.95
2023-05-05T08:37:39.834Z,100161.81
2023-05-05T08:40:13.394Z,100168.27
2023-05-05T08:42:42.279Z,100169.32
2023-05-05T08:45:11.916Z,100162.00
2023-05-05T08:47:42.422Z,100160.77
2023-05-05T08:50:12.180Z,100160.14
2023-05-05T08:52:43.267Z,100158.23
2023-05-05T08:55:17.796Z,100162.09
2023-05-05T08:57:51.542Z,100155.91
2023-05-05T09:00:21.424Z,100161.34
2023-05-05T09:02:50.442Z,100161.89
2023-05-05T09:05:19.145Z,100160.56
2023-05-05T09:07:48.248Z,100161.19
2023-05-05T09:10:17.383Z,100161.52
2023-05-05T09:12:46.031Z,100150.83
2023-05-05T09:15:17.711Z,100151.76
2023-05-05T09:17:46.414Z,100157.23
2023-05-05T09:20:15.623Z,100157.15
2023-05-05T09:22:45.501Z,100157.92
2023-05-05T09:25:15.739Z,100150.41
2023-05-05T09:27:46.250Z,100148.09
2023-05-05T09:30:17.152Z,100147.71
2023-05-05T09:32:47.337Z,100148.82
2023-05-05T09:35:16.902Z,100147.39
2023-05-05T09:37:45.836Z,100149.30
2023-05-05T09:40:17.218Z,100148.24
2023-05-05T09:42:46.609Z,100145.12
2023-05-05T09:45:27.862Z,100143.15
2023-05-05T09:47:59.869Z,100143.45
2023-05-05T09:50:29.884Z,100143.59
2023-05-05T09:52:59.444Z,100140.75
2023-05-05T09:55:28.394Z,100141.86
2023-05-05T09:58:16.434Z,100145.08
2023-05-05T10:00:45.432Z,100144.36
2023-05-05T10:03:14.136Z,100150.73
2023-05-05T10:05:51.046Z,100149.16
2023-05-05T10:08:21.075Z,100147.16
2023-05-05T10:10:58.866Z,100143.02
2023-05-05T10:13:28.522Z,100145.58
2023-05-05T10:15:57.860Z,100137.04
2023-05-05T10:18:27.810Z,100138.21
2023-05-05T10:21:00.050Z,100138.80
2023-05-05T10:23:35.851Z,100138.16
2023-05-05T10:26:07.164Z,100130.00
2023-05-05T10:28:41.439Z,100135.47
2023-05-05T10:31:25.178Z,100136.24
2023-05-05T10:34:00.327Z,100132.85
2023-05-05T10:36:30.047Z,100127.19
2023-05-05T10:39:00.506Z,100129.21
2023-05-05T10:41:30.262Z,100129.79
2023-05-05T10:44:00.020Z,100123.14
2023-05-05T10:46:30.242Z,100121.87
2023-05-05T10:49:09.689Z,100118.34
2023-05-05T10:51:47.015Z,100113.13
2023-05-05T10:54:28.120Z,100112.45
2023-05-05T10:56:57.773Z,100112.08
2023-05-05T10:59:46.917Z,100109.77
2023-05-05T11:02:25.844Z,100104.32
2023-05-05T11:05:14.491Z,100098.45
2023-05-05T11:07:43.699Z,100093.11
2023-05-05T11:10:14.246Z,100093.90
2023-05-05T11:13:11.246Z,100090.02
2023-05-05T11:15:40.874Z,100090.30
2023-05-05T11:18:29.796Z,100090.89
2023-05-05T11:21:08.347Z,100087.19
2023-05-05T11:23:36.816Z,100089.05
2023-05-05T11:26:05.784Z,100094.77
2023-05-05T11:28:34.429Z,100093.48
2023-05-05T11:31:19.404Z,100089.83
2023-05-05T11:33:48.275Z,100086.70
2023-05-05T11:36:17.885Z,100090.48
2023-05-05T11:39:07.975Z,100083.02
2023-05-05T11:41:57.528Z,100083.44
2023-05-05T11:44:32.110Z,100080.99
2023-05-05T11:48:02.931Z,100079.10
2023-05-05T11:50:33.693Z,100079.32
2023-05-05T11:53:02.389Z,100079.41
2023-05-05T11:55:30.810Z,100070.92
2023-05-05T11:57:59.267Z,100072.61
2023-05-05T12:00:33.943Z,100069.67
2023-05-05T12:03:03.632Z,100070.23
2023-05-05T12:05:33.581Z,100067.27
2023-05-05T12:08:03.603Z,100060.77
2023-05-05T12:10:33.449Z,100061.59
2023-05-05T12:13:01.841Z,100058.85
2023-05-05T12:15:32.235Z,100057.52
2023-05-05T12:18:02.768Z,100053.13
2023-05-05T12:20:33.208Z,100052.84
2023-05-05T12:23:04.992Z,100054.34
2023-05-05T12:25:36.632Z,100049.41
2023-05-05T12:28:07.065Z,100048.31
2023-05-05T12:30:36.309Z,100045.14
2023-05-05T12:33:06.699Z,100044.16
2023-05-05T12:35:35.632Z,100038.98
2023-05-05T12:38:04.117Z,100042.71
2023-05-05T12:40:53.270Z,100037.61
2023-05-05T12:43:29.872Z,100027.35
2023-05-05T12:46:09.007Z,100027.56
2023-05-05T12:48:39.120Z,100018.95
2023-05-05T12:51:16.016Z,100020.05
2023-05-05T12:53:45.519Z,100018.46
2023-05-05T12:56:35.254Z,100013.73
2023-05-05T12:59:05.437Z,100010.63
2023-05-05T13:01:34.630Z,100004.71
2023-05-05T13:04:08.159Z,100004.30
2023-05-05T13:06:37.126Z,99999.77
2023-05-05T13:09:06.496Z,99998.27
2023-05-05T13:11:38.881Z,99993.63
2023-05-05T13:14:08.312Z,99991.25
2023-05-05T13:16:36.670Z,99987.64
2023-05-05T13:19:05.178Z,99986.36
2023-05-05T13:21:33.547Z,99984.83
2023-05-05T13:24:19.116Z,99981.23
2023-05-05T13:26:51.108Z,99983.67
2023-05-05T13:29:19.961Z,99983.69
2023-05-05T13:31:49.293Z,99979.79
2023-05-05T13:34:17.641Z,99980.62
2023-05-05T13:36:46.021Z,99980.46
2023-05-05T13:39:14.496Z,99976.16
2023-05-05T13:41:44.084Z,99969.34
2023-05-05T13:44:13.431Z,99969.86
2023-05-05T13:46:42.078Z,99967.25
2023-05-05T13:49:10.597Z,99963.50
2023-05-05T13:51:39.057Z,99962.46
2023-05-05T13:54:07.917Z,99963.16
2023-05-05T13:56:36.520Z,99964.61
2023-05-05T13:59:05.002Z,99964.91
2023-05-05T14:01:33.572Z,99955.60
2023-05-05T14:04:05.185Z,99958.13
2023-05-05T14:06:35.034Z,99957.38
2023-05-05T14:09:05.220Z,99955.75
2023-05-05T14:11:33.847Z,99952.16
2023-05-05T14:14:02.436Z,99951.14
2023-05-05T14:16:31.137Z,99947.76
2023-05-05T14:18:59.777Z,99947.15
2023-05-05T14:21:28.239Z,99947.64
2023-05-05T14:23:57.157Z,99943.04
2023-05-05T14:26:26.651Z,99944.73
2023-05-05T14:28:56.105Z,99947.41
2023-05-05T14:31:24.571Z,99943.27
2023-05-05T14:33:53.099Z,99947.86
2023-05-05T14:36:21.978Z,99943.59
2023-05-05T14:38:50.526Z,99944.48
2023-05-05T14:41:19.225Z,99939.34
2023-05-05T14:43:48.916Z,99939.21
2023-05-05T14:46:19.865Z,99938.21
2023-05-05T14:48:52.245Z,99937.54
2023-05-05T14:51:20.783Z,99932.85
2023-05-05T14:53:51.732Z,99929.44
2023-05-05T14:56:22.188Z,99929.00
2023-05-05T14:58:50.810Z,99923.95
2023-05-05T15:01:24.336Z,99921.44
2023-05-05T15:03:53.327Z,99920.91
2023-05-05T15:06:21.890Z,99919.52
2023-05-05T15:08:51.720Z,99917.14
2023-05-05T15:11:20.163Z,99911.71
2023-05-05T15:13:48.906Z,99912.28
2023-05-05T15:16:17.416Z,99910.74
2023-05-05T15:18:46.002Z,99910.65
2023-05-05T15:21:14.757Z,99910.98
2023-05-05T15:23:45.721Z,99909.84
2023-05-05T15:26:14.139Z,99912.49
2023-05-05T15:28:42.505Z,99911.44
2023-05-05T15:31:11.023Z,99907.43
2023-05-05T15:33:39.930Z,99908.74
2023-05-05T15:36:10.082Z,99907.46
2023-05-05T15:38:43.281Z,99906.25
2023-05-05T15:41:11.798Z,99904.19
2023-05-05T15:43:40.518Z,99904.08
2023-05-05T15:46:08.990Z,99904.62
2023-05-05T15:48:37.475Z,99902.35
2023-05-05T15:51:06.076Z,99900.02
2023-05-05T15:53:34.432Z,99897.84
2023-05-05T15:56:02.857Z,99893.30
2023-05-05T15:58:31.754Z,99891.19
2023-05-05T16:01:00.186Z,99892.02
2023-05-05T16:03:28.966Z,99893.42
2023-05-05T16:05:58.001Z,99890.45
2023-05-05T16:08:26.398Z,99886.56
2023-05-05T16:10:57.674Z,99886.47
2023-05-05T16:13:26.531Z,99884.17
2023-05-05T16:15:55.532Z,99882.34
2023-05-05T16:18:24.047Z,99887.25
2023-05-05T16:20:52.481Z,99884.63
2023-05-05T16:23:22.182Z,99884.17
2023-05-05T16:25:52.023Z,99886.27
2023-05-05T16:28:20.561Z,99888.16
2023-05-05T16:30:52.138Z,99884.77
2023-05-05T16:33:21.091Z,99884.27
2023-05-05T16:35:49.664Z,99884.88
2023-05-05T16:38:18.060Z,99878.59
2023-05-05T16:40:46.650Z,99875.26
2023-05-05T16:43:15.193Z,99875.44
2023-05-05T16:45:43.630Z,99873.38
2023-05-05T16:48:13.180Z,99875.79
2023-05-05T16:50:41.774Z,99875.06
2023-05-05T16:53:10.637Z,99877.89
2023-05-05T16:55:39.092Z,99873.29
2023-05-05T16:58:08.136Z,99874.27
2023-05-05T17:00:36.968Z,99875.30
2023-05-05T17:03:05.776Z,99875.45
2023-05-05T17:05:34.531Z,99874.73
2023-05-05T17:08:03.338Z,99873.30
2023-05-05T17:10:31.927Z,99873.83
2023-05-05T17:13:00.302Z,99872.78
2023-05-05T17:15:28.858Z,99874.91
2023-05-05T17:17:57.269Z,99876.05
2023-05-05T17:20:26.211Z,99881.10
2023-05-05T17:22:54.999Z,99888.42
2023-05-05T17:25:25.199Z,99887.39
2023-05-05T17:27:53.814Z,99889.67
2023-05-05T17:30:22.758Z,99886.73
2023-05-05T17:32:52.033Z,99889.60
2023-05-05T17:35:21.192Z,99893.87
2023-05-05T17:37:49.679Z,99895.52
2023-05-05T17:40:18.329Z,99892.86
2023-05-05T17:42:46.756Z,99899.15
2023-05-05T17:45:15.518Z,99901.55
2023-05-05T17:47:44.077Z,99902.92
2023-05-05T17:50:12.971Z,99902.70
2023-05-05T17:52:42.542Z,99903.95
2023-05-05T17:55:11.847Z,99898.51
2023-05-05T17:57:40.638Z,99899.05
2023-05-05T18:00:13.155Z,99905.56
2023-05-05T18:02:42.971Z,99907.84
2023-05-05T18:05:12.730Z,99909.29
2023-05-05T18:07:41.657Z,99910.34
2023-05-05T18:10:11.365Z,99913.16
2023-05-05T18:12:39.990Z,99915.00
2023-05-05T18:15:10.298Z,99912.44
2023-05-05T18:17:39.206Z,99907.48
2023-05-05T18:20:10.130Z,99916.30
2023-05-05T18:22:38.591Z,99916.79
2023-05-05T18:25:09.648Z,99923.65
2023-05-05T18:27:39.226Z,99923.34
2023-05-05T18:30:09.477Z,99931.90
2023-05-05T18:32:39.372Z,99932.84
2023-05-05T18:35:21.881Z,99933.50
2023-05-05T18:37:56.868Z,99939.10
2023-05-05T18:40:26.720Z,99940.16
2023-05-05T18:42:56.204Z,99944.55
2023-05-05T18:45:28.461Z,99945.92
2023-05-05T18:47:58.540Z,99946.52
2023-05-05T18:50:27.471Z,99949.05
2023-05-05T18:52:56.107Z,99949.92
2023-05-05T18:55:25.085Z,99954.24
2023-05-05T18:57:53.526Z,99955.77
2023-05-05T19:00:22.260Z,99951.53
2023-05-05T19:02:56.952Z,99947.93
2023-05-05T19:05:35.461Z,99947.74
2023-05-05T19:08:06.737Z,99945.91
2023-05-05T19:10:35.952Z,99947.52
2023-05-05T19:13:12.013Z,99949.79
2023-05-05T19:15:42.467Z,99951.10
2023-05-05T19:18:38.321Z,99948.30
2023-05-05T19:21:10.861Z,99949.02
2023-05-05T19:23:40.297Z,99951.66
2023-05-05T19:26:09.708Z,99954.29
2023-05-05T19:28:38.271Z,99951.89
2023-05-05T19:31:08.001Z,99955.30
2023-05-05T19:33:39.417Z,99955.34
2023-05-05T19:36:08.501Z,99957.08
2023-05-05T19:38:43.715Z,99953.90
2023-05-05T19:41:17.171Z,99955.00
2023-05-05T19:43:45.975Z,99956.82
2023-05-05T19:46:20.112Z,99955.59
2023-05-05T19:48:53.734Z,99954.11
2023-05-05T19:51:31.242Z,99954.59
2023-05-05T19:53:59.870Z,99955.67
2023-05-05T19:56:29.162Z,99959.06
2023-05-05T19:59:06.055Z,99962.95
2023-05-05T20:01:35.508Z,99963.16
2023-05-05T20:04:04.208Z,99961.40
2023-05-05T20:06:32.711Z,99960.98
2023-05-05T20:09:01.649Z,99962.08
2023-05-05T20:11:30.729Z,99958.51
2023-05-05T20:13:59.303Z,99953.18
2023-05-05T20:16:27.839Z,99948.58
2023-05-05T20:18:56.492Z,99950.70
2023-05-05T20:21:25.230Z,99946.05
2023-05-05T20:23:54.233Z,99948.67
2023-05-05T20:26:23.764Z,99948.58
2023-05-05T20:28:52.222Z,99948.02
2023-05-05T20:31:20.973Z,99945.95
2023-05-05T20:33:49.843Z,99943.96
2023-05-05T20:36:18.703Z,99938.36
2023-05-05T20:38:47.260Z,99937.33
2023-05-05T20:41:17.126Z,99935.05
2023-05-05T20:43:45.963Z,99936.96
2023-05-05T20:46:14.368Z,99938.20
2023-05-05T20:48:43.256Z,99932.92
2023-05-05T20:51:11.718Z,99933.23
2023-05-05T20:53:40.288Z,99934.48
2023-05-05T20:56:09.209Z,99936.44
2023-05-05T20:58:37.845Z,99931.16
2023-05-05T21:01:06.357Z,99929.19
2023-05-05T21:03:36.966Z,99931.02
2023-05-05T21:06:05.960Z,99929.40
2023-05-05T21:08:34.618Z,99931.64
2023-05-05T21:11:07.950Z,99928.25
2023-05-05T21:13:36.308Z,99921.13
2023-05-05T21:16:05.753Z,99920.52
2023-05-05T21:18:34.150Z,99918.30
2023-05-05T21:21:02.538Z,99916.49
2023-05-05T21:23:31.148Z,99911.17
2023-05-05T21:25:59.706Z,99909.85
2023-05-05T21:28:28.227Z,99902.85
2023-05-05T21:31:19.710Z,99905.20
2023-05-05T21:33:45.983Z,99909.05
2023-05-05T21:36:14.493Z,99909.05
2023-05-05T21:38:42.859Z,99903.70
2023-05-05T21:41:11.220Z,99903.98
2023-05-05T21:43:39.643Z,99901.92
2023-05-05T21:46:08.387Z,99901.25
2023-05-05T21:48:38.136Z,99905.88
2023-05-05T21:51:07.681Z,99906.54
2023-05-05T21:53:37.083Z,99919.54
2023-05-05T21:56:07.195Z,99918.36
2023-05-05T21:58:35.706Z,99915.86
2023-05-05T22:01:04.410Z,99920.48
2023-05-05T22:03:34.520Z,99922.98
2023-05-05T22:06:03.376Z,99924.21
2023-05-05T22:08:31.794Z,99924.06
2023-05-05T22:11:00.976Z,99918.50
2023-05-05T22:13:29.497Z,99917.17
2023-05-05T22:15:58.003Z,99914.30
2023-05-05T22:18:26.487Z,99915.65
2023-05-05T22:20:54.962Z,99914.83
2023-05-05T22:23:23.437Z,99918.63
2023-05-05T22:25:51.837Z,99921.08
2023-05-05T22:28:20.963Z,99929.04
2023-05-05T22:30:49.699Z,99933.08
2023-05-05T22:33:18.129Z,99927.91
2023-05-05T22:35:46.810Z,99925.60
2023-05-05T22:38:15.216Z,99926.64
2023-05-05T22:40:43.729Z,99921.80
2023-05-05T22:43:12.200Z,99921.83
2023-05-05T22:45:40.843Z,99925.04
2023-05-05T22:48:09.259Z,99931.92
2023-05-05T22:50:37.760Z,99935.79
2023-05-05T22:53:06.801Z,99926.94
2023-05-05T22:55:35.238Z,99921.79
2023-05-05T22:58:03.898Z,99919.44
2023-05-05T23:00:32.716Z,99923.63
2023-05-05T23:03:01.652Z,99914.20
2023-05-05T23:05:30.168Z,99908.54
2023-05-05T23:08:00.581Z,99910.99
2023-05-05T23:10:29.729Z,99907.31
2023-05-05T23:12:59.597Z,99911.56
2023-05-05T23:15:28.504Z,99907.33
2023-05-05T23:17:56.983Z,99902.41
2023-05-05T23:20:25.979Z,99898.45
2023-05-05T23:22:54.766Z,99896.00
2023-05-05T23:25:23.172Z,99894.89
2023-05-05T23:27:51.723Z,99895.09
2023-05-05T23:30:20.645Z,99894.86
2023-05-05T23:32:49.199Z,99894.17
2023-05-05T23:35:18.100Z,99891.99
2023-05-05T23:37:46.570Z,99888.16
2023-05-05T23:40:14.960Z,99887.83
2023-05-05T23:42:43.348Z,99884.42
2023-05-05T23:45:12.387Z,99881.66
2023-05-05T23:47:40.998Z,99876.70
2023-05-05T23:50:10.786Z,99878.54
2023-05-05T23:52:39.161Z,99876.96
2023-05-05T23:55:09.948Z,99870.64
2023-05-05T23:57:38.709Z,99870.44
